Zeus — V2OR — position and weather

sailwx.info

Track history (hours):
 
Tides and Currents Weather Stations Pressure Air Temp Water Temp Dewpoint Dewpoint Depression Visibility Wind Speed Wind Dir Waves Ship Positions

Zeus

Last reported at 2016-May-04 03:31 UTC. Time now 2016-May-04 04:04 UTC.
Position N 59°11' E 010°57'.

Length 89 m; draft 4.2 m.

Type: Ship. MMSI: 304011025.

Date/timePositionNaut miles runAvg speedWind from/ knotsBaromVisibWave heightAir tempDewpointWater temp
2016-May-04 03:31N 59°11' E 010°57'0 0.0
2016-May-04 02:32N 59°11' E 010°57'0 0.0
2016-May-04 01:33N 59°11' E 010°57'0 0.0
2016-May-04 00:31N 59°11' E 010°57'0 0.0
2016-May-03 23:31N 59°11' E 010°57'0 0.0
2016-May-03 22:30N 59°11' E 010°57'0 0.0
2016-May-03 21:33N 59°11' E 010°57'0 0.0
2016-May-03 20:32N 59°11' E 010°57'0 0.0
2016-May-03 19:31N 59°11' E 010°57'0 0.0
2016-May-03 18:31N 59°11' E 010°57'0 0.0
2016-May-03 17:29N 59°11' E 010°57'0 0.3
2016-May-03 16:33N 59°11' E 010°57'6 5.9
2016-May-03 15:34N 59°10' E 010°46'9 9.5
2016-May-03 14:34N 59°19' E 010°40'8 7.8
2016-May-03 13:34N 59°25' E 010°30'0 0.0
2016-May-03 12:33N 59°25' E 010°30'0 0.0
2016-May-03 11:31N 59°25' E 010°30'0 0.0
2016-May-03 10:32N 59°25' E 010°30'0 0.0
2016-May-03 09:33N 59°25' E 010°30'0 0.0
2016-May-03 08:32N 59°25' E 010°30'0 0.0
2016-May-03 07:26N 59°25' E 010°30'0 0.0
2016-May-03 06:31N 59°25' E 010°30'0 0.0
2016-May-03 05:33N 59°25' E 010°30'0 0.0
2016-May-03 04:31N 59°25' E 010°30'0 0.0
2016-May-03 03:28N 59°25' E 010°30'0 0.0
2016-May-03 02:32N 59°25' E 010°30'0 0.0
2016-May-03 01:32N 59°25' E 010°30'0 0.0
2016-May-03 00:33N 59°25' E 010°30'0 0.0
2016-May-02 23:31N 59°25' E 010°30'0 0.0
2016-May-02 22:33N 59°25' E 010°30'0 0.0
2016-May-02 21:33N 59°25' E 010°30'0 0.0
2016-May-02 20:33N 59°25' E 010°30'5 4.6
2016-May-02 19:34N 59°21' E 010°35'1110.9
2016-May-02 18:33N 59°11' E 010°40'10 9.8
2016-May-02 17:33N 59°01' E 010°44'1010.3
2016-May-02 16:34N 58°54' E 010°30'10 9.8
2016-May-02 15:33N 58°47' E 010°17'10 9.9
2016-May-02 14:33N 58°39' E 010°05'1010.0
2016-May-02 13:33N 58°31' E 009°54'1110.1
2016-May-02 12:30N 58°22' E 009°42'29310.1
2016-May-01 07:33N 54°11' E 005°12'9 9.4
2016-May-01 06:33N 54°02' E 005°06'114 9.5
2016-Apr-30 18:31N 52°17' E 003°53'9 9.0
2016-Apr-30 17:33N 52°09' E 003°55'9 9.0
2016-Apr-30 16:33N 52°01' E 004°02'1111.2
2016-Apr-30 15:33N 51°54' E 004°17'5 5.2
2016-Apr-30 14:34N 51°55' E 004°25'0 0.0
2016-Apr-30 13:26N 51°55' E 004°25'0 0.0
2016-Apr-30 12:25N 51°55' E 004°25'0 0.0
2016-Apr-30 11:27N 51°55' E 004°25'0 0.0
2016-Apr-30 10:32N 51°55' E 004°25'0 0.0
2016-Apr-30 09:28N 51°55' E 004°25'0 0.0
2016-Apr-30 08:33N 51°55' E 004°25'0 0.0
2016-Apr-30 07:26N 51°55' E 004°25'0 0.0
2016-Apr-30 06:32N 51°55' E 004°25'0 0.2
2016-Apr-30 05:28N 51°54' E 004°25'2 2.1
2016-Apr-30 04:27N 51°54' E 004°28'0 0.0
2016-Apr-30 03:32N 51°54' E 004°28'0 0.0
2016-Apr-30 02:28N 51°54' E 004°28'0 0.0
2016-Apr-30 01:33N 51°54' E 004°28'0 0.0
2016-Apr-30 00:27N 51°54' E 004°28'0 0.0
2016-Apr-29 23:31N 51°54' E 004°28'0 0.0
2016-Apr-29 22:27N 51°54' E 004°28'0 0.0
2016-Apr-29 21:24N 51°54' E 004°28'0 0.0
2016-Apr-29 20:28N 51°54' E 004°28'0 0.0
2016-Apr-29 19:33N 51°54' E 004°28'0 0.0
2016-Apr-29 18:27N 51°54' E 004°28'0 0.0
2016-Apr-29 17:33N 51°54' E 004°28'0 0.0
2016-Apr-29 16:26N 51°54' E 004°28'0 0.0
2016-Apr-29 15:30N 51°54' E 004°28'0 0.0
2016-Apr-29 14:27N 51°54' E 004°28'0 0.0
2016-Apr-29 13:33N 51°54' E 004°28'0 0.0
2016-Apr-29 12:20N 51°54' E 004°28'0 0.0
2016-Apr-29 11:32N 51°54' E 004°28'0 0.0
2016-Apr-29 10:20N 51°54' E 004°28'0 0.0
2016-Apr-29 09:33N 51°54' E 004°28'0 0.0
2016-Apr-29 08:29N 51°54' E 004°28'0 0.0
2016-Apr-29 07:33N 51°54' E 004°28'3 2.7
2016-Apr-29 06:30N 51°54' E 004°33'6 6.4
2016-Apr-29 05:33N 51°50' E 004°40'8 7.5
2016-Apr-29 04:33N 51°49' E 004°52'60 8.3
2016-Apr-28 21:21N 51°41' E 006°28'6 8.1
2016-Apr-28 20:33N 51°36' E 006°36'8 7.9
2016-Apr-28 19:34N 51°30' E 006°43'3 2.3
2016-Apr-28 18:18N 51°27' E 006°45'0 0.1
2016-Apr-28 17:32N 51°27' E 006°45'0 0.0
2016-Apr-28 16:33N 51°27' E 006°45'0 0.0
2016-Apr-28 12:09N 51°27' E 006°45'0 0.0
2016-Apr-28 10:28N 51°27' E 006°45'0 0.0
2016-Apr-28 09:26N 51°27' E 006°45'0 0.0
2016-Apr-28 08:33N 51°27' E 006°45'0 0.0
2016-Apr-28 06:08N 51°27' E 006°45'0 0.0
2016-Apr-28 05:33N 51°27' E 006°45'3 3.0
2016-Apr-28 04:33N 51°30' E 006°42'3 0.2
2016-Apr-27 11:21N 51°27' E 006°45'0 0.0
2016-Apr-27 07:23N 51°27' E 006°45'0 0.0
2016-Apr-27 05:24N 51°27' E 006°45'0 0.0
2016-Apr-27 02:24N 51°27' E 006°45'1 0.4
2016-Apr-27 00:12N 51°28' E 006°44'2 3.5
2016-Apr-26 23:33N 51°30' E 006°43'5 5.2
2016-Apr-26 22:33N 51°35' E 006°40'4 4.1
2016-Apr-26 21:29N 51°38' E 006°36'62 5.9
2016-Apr-26 11:05N 51°49' E 004°58'12 7.7
2016-Apr-26 09:32N 51°51' E 004°39'7 7.3
2016-Apr-26 08:33N 51°55' E 004°30'1 0.9
2016-Apr-26 07:26N 51°54' E 004°28'0 0.0
2016-Apr-26 06:30N 51°54' E 004°28'0 0.0
2016-Apr-26 05:29N 51°54' E 004°28'0 0.0
2016-Apr-26 04:23N 51°54' E 004°28'4 4.5
2016-Apr-26 03:33N 51°54' E 004°22'10 9.8
2016-Apr-26 02:33N 51°58' E 004°08'10 9.7
2016-Apr-26 01:33N 52°01' E 003°53'10 9.6
2016-Apr-26 00:33N 52°05' E 003°39'10 9.6
2016-Apr-25 23:32N 52°09' E 003°25'10 9.9
2016-Apr-25 22:31N 52°16' E 003°12'59 9.2
2016-Apr-25 16:05N 52°55' E 001°59'4 7.9
2016-Apr-25 15:33N 52°57' E 001°53'8 8.0
2016-Apr-25 14:33N 53°02' E 001°42'9 8.9
2016-Apr-25 13:33N 53°07' E 001°30'47 5.1
2016-Apr-25 04:23N 53°34' E 000°27'0 0.1
2016-Apr-25 03:33N 53°35' E 000°27'4 4.3
2016-Apr-25 02:33N 53°32' E 000°21'8 7.8
2016-Apr-25 01:33N 53°33' E 000°08'1211.5
2016-Apr-25 00:34N 53°38' W 000°10'1 1.4
2016-Apr-24 23:33N 53°39' W 000°11'0 0.0
2016-Apr-24 22:33N 53°39' W 000°11'7 6.6
2016-Apr-24 21:33N 53°43' W 000°20'  
Track history (hours):
 
Tides and Currents Weather Stations Pressure Air Temp Water Temp Dewpoint Dewpoint Depression Visibility Wind Speed Wind Dir Waves Ship Positions

Zeus

Last reported at 2016-May-04 03:31 UTC. Time now 2016-May-04 04:04 UTC.
Position N 59°11' E 010°57'.

Length 89 m; draft 4.2 m.

Type: Ship. MMSI: 304011025.

Date/timePositionNaut miles runAvg speedWind from/ knotsBaromVisibWave heightAir tempDewpointWater temp
2016-May-04 03:31N 59°11' E 010°57'0 0.0
2016-May-04 02:32N 59°11' E 010°57'0 0.0
2016-May-04 01:33N 59°11' E 010°57'0 0.0
2016-May-04 00:31N 59°11' E 010°57'0 0.0
2016-May-03 23:31N 59°11' E 010°57'0 0.0
2016-May-03 22:30N 59°11' E 010°57'0 0.0
2016-May-03 21:33N 59°11' E 010°57'0 0.0
2016-May-03 20:32N 59°11' E 010°57'0 0.0
2016-May-03 19:31N 59°11' E 010°57'0 0.0
2016-May-03 18:31N 59°11' E 010°57'0 0.0
2016-May-03 17:29N 59°11' E 010°57'0 0.3
2016-May-03 16:33N 59°11' E 010°57'6 5.9
2016-May-03 15:34N 59°10' E 010°46'9 9.5
2016-May-03 14:34N 59°19' E 010°40'8 7.8
2016-May-03 13:34N 59°25' E 010°30'0 0.0
2016-May-03 12:33N 59°25' E 010°30'0 0.0
2016-May-03 11:31N 59°25' E 010°30'0 0.0
2016-May-03 10:32N 59°25' E 010°30'0 0.0
2016-May-03 09:33N 59°25' E 010°30'0 0.0
2016-May-03 08:32N 59°25' E 010°30'0 0.0
2016-May-03 07:26N 59°25' E 010°30'0 0.0
2016-May-03 06:31N 59°25' E 010°30'0 0.0
2016-May-03 05:33N 59°25' E 010°30'0 0.0
2016-May-03 04:31N 59°25' E 010°30'0 0.0
2016-May-03 03:28N 59°25' E 010°30'0 0.0
2016-May-03 02:32N 59°25' E 010°30'0 0.0
2016-May-03 01:32N 59°25' E 010°30'0 0.0
2016-May-03 00:33N 59°25' E 010°30'0 0.0
2016-May-02 23:31N 59°25' E 010°30'0 0.0
2016-May-02 22:33N 59°25' E 010°30'0 0.0
2016-May-02 21:33N 59°25' E 010°30'0 0.0
2016-May-02 20:33N 59°25' E 010°30'5 4.6
2016-May-02 19:34N 59°21' E 010°35'1110.9
2016-May-02 18:33N 59°11' E 010°40'10 9.8
2016-May-02 17:33N 59°01' E 010°44'1010.3
2016-May-02 16:34N 58°54' E 010°30'10 9.8
2016-May-02 15:33N 58°47' E 010°17'10 9.9
2016-May-02 14:33N 58°39' E 010°05'1010.0
2016-May-02 13:33N 58°31' E 009°54'1110.1
2016-May-02 12:30N 58°22' E 009°42'29310.1
2016-May-01 07:33N 54°11' E 005°12'9 9.4
2016-May-01 06:33N 54°02' E 005°06'114 9.5
2016-Apr-30 18:31N 52°17' E 003°53'9 9.0
2016-Apr-30 17:33N 52°09' E 003°55'9 9.0
2016-Apr-30 16:33N 52°01' E 004°02'1111.2
2016-Apr-30 15:33N 51°54' E 004°17'5 5.2
2016-Apr-30 14:34N 51°55' E 004°25'0 0.0
2016-Apr-30 13:26N 51°55' E 004°25'0 0.0
2016-Apr-30 12:25N 51°55' E 004°25'0 0.0
2016-Apr-30 11:27N 51°55' E 004°25'0 0.0
2016-Apr-30 10:32N 51°55' E 004°25'0 0.0
2016-Apr-30 09:28N 51°55' E 004°25'0 0.0
2016-Apr-30 08:33N 51°55' E 004°25'0 0.0
2016-Apr-30 07:26N 51°55' E 004°25'0 0.0
2016-Apr-30 06:32N 51°55' E 004°25'0 0.2
2016-Apr-30 05:28N 51°54' E 004°25'2 2.1
2016-Apr-30 04:27N 51°54' E 004°28'0 0.0
2016-Apr-30 03:32N 51°54' E 004°28'0 0.0
2016-Apr-30 02:28N 51°54' E 004°28'0 0.0
2016-Apr-30 01:33N 51°54' E 004°28'0 0.0
2016-Apr-30 00:27N 51°54' E 004°28'0 0.0
2016-Apr-29 23:31N 51°54' E 004°28'0 0.0
2016-Apr-29 22:27N 51°54' E 004°28'0 0.0
2016-Apr-29 21:24N 51°54' E 004°28'0 0.0
2016-Apr-29 20:28N 51°54' E 004°28'0 0.0
2016-Apr-29 19:33N 51°54' E 004°28'0 0.0
2016-Apr-29 18:27N 51°54' E 004°28'0 0.0
2016-Apr-29 17:33N 51°54' E 004°28'0 0.0
2016-Apr-29 16:26N 51°54' E 004°28'0 0.0
2016-Apr-29 15:30N 51°54' E 004°28'0 0.0
2016-Apr-29 14:27N 51°54' E 004°28'0 0.0
2016-Apr-29 13:33N 51°54' E 004°28'0 0.0
2016-Apr-29 12:20N 51°54' E 004°28'0 0.0
2016-Apr-29 11:32N 51°54' E 004°28'0 0.0
2016-Apr-29 10:20N 51°54' E 004°28'0 0.0
2016-Apr-29 09:33N 51°54' E 004°28'0 0.0
2016-Apr-29 08:29N 51°54' E 004°28'0 0.0
2016-Apr-29 07:33N 51°54' E 004°28'3 2.7
2016-Apr-29 06:30N 51°54' E 004°33'6 6.4
2016-Apr-29 05:33N 51°50' E 004°40'8 7.5
2016-Apr-29 04:33N 51°49' E 004°52'60 8.3
2016-Apr-28 21:21N 51°41' E 006°28'6 8.1
2016-Apr-28 20:33N 51°36' E 006°36'8 7.9
2016-Apr-28 19:34N 51°30' E 006°43'3 2.3
2016-Apr-28 18:18N 51°27' E 006°45'0 0.1
2016-Apr-28 17:32N 51°27' E 006°45'0 0.0
2016-Apr-28 16:33N 51°27' E 006°45'0 0.0
2016-Apr-28 12:09N 51°27' E 006°45'0 0.0
2016-Apr-28 10:28N 51°27' E 006°45'0 0.0
2016-Apr-28 09:26N 51°27' E 006°45'0 0.0
2016-Apr-28 08:33N 51°27' E 006°45'0 0.0
2016-Apr-28 06:08N 51°27' E 006°45'0 0.0
2016-Apr-28 05:33N 51°27' E 006°45'3 3.0
2016-Apr-28 04:33N 51°30' E 006°42'3 0.2
2016-Apr-27 11:21N 51°27' E 006°45'0 0.0
2016-Apr-27 07:23N 51°27' E 006°45'0 0.0
2016-Apr-27 05:24N 51°27' E 006°45'0 0.0
2016-Apr-27 02:24N 51°27' E 006°45'1 0.4
2016-Apr-27 00:12N 51°28' E 006°44'2 3.5
2016-Apr-26 23:33N 51°30' E 006°43'5 5.2
2016-Apr-26 22:33N 51°35' E 006°40'4 4.1
2016-Apr-26 21:29N 51°38' E 006°36'62 5.9
2016-Apr-26 11:05N 51°49' E 004°58'12 7.7
2016-Apr-26 09:32N 51°51' E 004°39'7 7.3
2016-Apr-26 08:33N 51°55' E 004°30'1 0.9
2016-Apr-26 07:26N 51°54' E 004°28'0 0.0
2016-Apr-26 06:30N 51°54' E 004°28'0 0.0
2016-Apr-26 05:29N 51°54' E 004°28'0 0.0
2016-Apr-26 04:23N 51°54' E 004°28'4 4.5
2016-Apr-26 03:33N 51°54' E 004°22'10 9.8
2016-Apr-26 02:33N 51°58' E 004°08'10 9.7
2016-Apr-26 01:33N 52°01' E 003°53'10 9.6
2016-Apr-26 00:33N 52°05' E 003°39'10 9.6
2016-Apr-25 23:32N 52°09' E 003°25'10 9.9
2016-Apr-25 22:31N 52°16' E 003°12'59 9.2
2016-Apr-25 16:05N 52°55' E 001°59'4 7.9
2016-Apr-25 15:33N 52°57' E 001°53'8 8.0
2016-Apr-25 14:33N 53°02' E 001°42'9 8.9
2016-Apr-25 13:33N 53°07' E 001°30'47 5.1
2016-Apr-25 04:23N 53°34' E 000°27'0 0.1
2016-Apr-25 03:33N 53°35' E 000°27'4 4.3
2016-Apr-25 02:33N 53°32' E 000°21'8 7.8
2016-Apr-25 01:33N 53°33' E 000°08'1211.5
2016-Apr-25 00:34N 53°38' W 000°10'1 1.4
2016-Apr-24 23:33N 53°39' W 000°11'0 0.0
2016-Apr-24 22:33N 53°39' W 000°11'7 6.6
2016-Apr-24 21:33N 53°43' W 000°20'  

Dump ship's entire track history